createdAt,value
2023-04-21T00:00:56.405Z,10.95
2023-04-21T00:03:26.701Z,10.91
2023-04-21T00:05:58.942Z,10.86
2023-04-21T00:08:27.943Z,10.84
2023-04-21T00:10:56.453Z,10.75
2023-04-21T00:13:26.358Z,10.75
2023-04-21T00:15:55.142Z,10.70
2023-04-21T00:18:25.957Z,10.68
2023-04-21T00:20:54.546Z,10.66
2023-04-21T00:23:23.222Z,10.63
2023-04-21T00:25:52.690Z,10.57
2023-04-21T00:28:21.199Z,10.54
2023-04-21T00:30:51.180Z,10.46
2023-04-21T00:33:19.645Z,10.51
2023-04-21T00:35:48.179Z,10.48
2023-04-21T00:38:16.708Z,10.45
2023-04-21T00:40:45.137Z,10.43
2023-04-21T00:43:14.120Z,10.39
2023-04-21T00:45:42.600Z,10.36
2023-04-21T00:48:12.840Z,10.31
2023-04-21T00:50:41.633Z,10.28
2023-04-21T00:53:11.355Z,10.25
2023-04-21T00:55:40.108Z,10.20
2023-04-21T00:58:08.776Z,10.16
2023-04-21T01:00:38.121Z,10.12
2023-04-21T01:03:08.367Z,10.07
2023-04-21T01:05:38.365Z,10.03
2023-04-21T01:08:08.194Z,10.06
2023-04-21T01:10:36.624Z,10.03
2023-04-21T01:13:05.026Z,10.02
2023-04-21T01:15:34.071Z,9.99
2023-04-21T01:18:02.750Z,9.96
2023-04-21T01:20:31.250Z,9.93
2023-04-21T01:23:01.656Z,9.91
2023-04-21T01:25:30.546Z,9.83
2023-04-21T01:27:59.062Z,9.83
2023-04-21T01:30:27.585Z,9.80
2023-04-21T01:32:58.822Z,9.73
2023-04-21T01:35:27.264Z,9.72
2023-04-21T01:37:55.814Z,9.70
2023-04-21T01:40:25.670Z,9.63
2023-04-21T01:42:54.132Z,9.60
2023-04-21T01:45:22.535Z,9.59
2023-04-21T01:47:50.976Z,9.58
2023-04-21T01:50:19.601Z,9.53
2023-04-21T01:52:48.182Z,9.53
2023-04-21T01:55:16.969Z,9.49
2023-04-21T01:57:46.914Z,9.50
2023-04-21T02:00:16.256Z,9.46
2023-04-21T02:02:44.964Z,9.45
2023-04-21T02:05:13.616Z,9.44
2023-04-21T02:07:42.122Z,9.39
2023-04-21T02:10:11.488Z,9.38
2023-04-21T02:12:40.164Z,9.39
2023-04-21T02:15:11.269Z,9.38
2023-04-21T02:17:40.089Z,9.37
2023-04-21T02:20:10.774Z,9.36
2023-04-21T02:22:39.329Z,9.34
2023-04-21T02:25:08.598Z,9.32
2023-04-21T02:27:37.030Z,9.29
2023-04-21T02:30:06.734Z,9.27
2023-04-21T02:32:36.860Z,9.15
2023-04-21T02:35:06.805Z,9.00
2023-04-21T02:37:36.178Z,8.93
2023-04-21T02:40:06.820Z,8.93
2023-04-21T02:42:35.663Z,8.92
2023-04-21T02:45:04.295Z,8.91
2023-04-21T02:47:32.862Z,8.91
2023-04-21T02:50:03.337Z,8.86
2023-04-21T02:52:31.820Z,8.90
2023-04-21T02:55:00.304Z,8.88
2023-04-21T02:57:28.780Z,8.84
2023-04-21T02:59:57.218Z,8.86
2023-04-21T03:02:26.075Z,8.84
2023-04-21T03:04:54.915Z,8.84
2023-04-21T03:07:25.001Z,8.83
2023-04-21T03:09:53.695Z,8.84
2023-04-21T03:12:22.405Z,8.80
2023-04-21T03:14:51.082Z,8.80
2023-04-21T03:17:19.855Z,8.78
2023-04-21T03:19:48.698Z,8.75
2023-04-21T03:22:17.462Z,8.74
2023-04-21T03:24:47.382Z,8.72
2023-04-21T03:27:16.103Z,8.68
2023-04-21T03:29:44.589Z,8.67
2023-04-21T03:32:13.155Z,8.63
2023-04-21T03:34:42.167Z,8.61
2023-04-21T03:37:10.565Z,8.60
2023-04-21T03:39:39.018Z,8.56
2023-04-21T03:42:08.932Z,8.55
2023-04-21T03:44:37.418Z,8.52
2023-04-21T03:47:05.921Z,8.51
2023-04-21T03:49:35.962Z,8.48
2023-04-21T03:52:04.455Z,8.37
2023-04-21T03:54:33.014Z,8.44
2023-04-21T03:57:01.377Z,8.41
2023-04-21T03:59:31.614Z,8.33
2023-04-21T04:02:00.288Z,8.34
2023-04-21T04:04:29.221Z,8.32
2023-04-21T04:06:58.039Z,8.25
2023-04-21T04:09:26.458Z,8.22
2023-04-21T04:11:54.974Z,8.18
2023-04-21T04:14:23.581Z,8.14
2023-04-21T04:16:53.457Z,8.11
2023-04-21T04:19:22.113Z,8.11
2023-04-21T04:21:50.736Z,8.09
2023-04-21T04:24:19.647Z,8.08
2023-04-21T04:26:48.330Z,8.08
2023-04-21T04:29:18.109Z,8.09
2023-04-21T04:31:46.978Z,8.10
2023-04-21T04:34:17.836Z,8.10
2023-04-21T04:36:46.323Z,8.08
2023-04-21T04:39:14.883Z,8.12
2023-04-21T04:41:43.473Z,8.13
2023-04-21T04:44:11.983Z,8.14
2023-04-21T04:46:40.956Z,8.14
2023-04-21T04:49:09.858Z,8.17
2023-04-21T04:51:39.848Z,8.16
2023-04-21T04:54:08.319Z,8.16
2023-04-21T04:56:36.916Z,8.18
2023-04-21T04:59:05.961Z,8.23
2023-04-21T05:01:34.518Z,8.24
2023-04-21T05:04:03.141Z,8.28
2023-04-21T05:06:32.902Z,8.33
2023-04-21T05:09:02.946Z,8.37
2023-04-21T05:11:31.459Z,8.40
2023-04-21T05:14:00.010Z,8.39
2023-04-21T05:16:28.738Z,8.48
2023-04-21T05:18:57.289Z,8.53
2023-04-21T05:21:27.911Z,8.57
2023-04-21T05:23:57.058Z,8.60
2023-04-21T05:26:28.091Z,8.66
2023-04-21T05:28:57.593Z,8.74
2023-04-21T05:31:26.910Z,8.81
2023-04-21T05:33:55.622Z,8.91
2023-04-21T05:36:25.179Z,9.02
2023-04-21T05:38:55.318Z,9.08
2023-04-21T05:41:24.260Z,9.13
2023-04-21T05:43:54.703Z,9.21
2023-04-21T05:46:23.348Z,9.28
2023-04-21T05:48:51.877Z,9.34
2023-04-21T05:51:20.607Z,9.40
2023-04-21T05:53:49.084Z,9.46
2023-04-21T05:56:17.792Z,9.51
2023-04-21T05:58:51.584Z,9.60
2023-04-21T06:01:21.639Z,9.67
2023-04-21T06:03:52.589Z,9.86
2023-04-21T06:06:21.764Z,9.90
2023-04-21T06:08:50.472Z,9.92
2023-04-21T06:11:18.914Z,9.97
2023-04-21T06:13:48.082Z,10.08
2023-04-21T06:16:16.496Z,10.16
2023-04-21T06:18:49.431Z,10.29
2023-04-21T06:21:17.981Z,10.50
2023-04-21T06:23:46.408Z,10.58
2023-04-21T06:26:14.768Z,10.62
2023-04-21T06:28:43.268Z,10.70
2023-04-21T06:31:15.652Z,10.69
2023-04-21T06:33:45.678Z,10.84
2023-04-21T06:36:15.108Z,11.01
2023-04-21T06:38:44.748Z,11.17
2023-04-21T06:41:13.176Z,11.18
2023-04-21T06:43:41.776Z,11.30
2023-04-21T06:46:10.218Z,11.43
2023-04-21T06:48:38.659Z,11.54
2023-04-21T06:51:08.562Z,11.58
2023-04-21T06:53:37.816Z,11.63
2023-04-21T06:56:06.506Z,11.91
2023-04-21T06:58:35.238Z,12.01
2023-04-21T07:01:04.004Z,12.15
2023-04-21T07:03:32.717Z,12.21
2023-04-21T07:06:01.252Z,12.27
2023-04-21T07:08:31.282Z,12.41
2023-04-21T07:10:59.950Z,12.42
2023-04-21T07:13:28.784Z,12.52
2023-04-21T07:15:57.809Z,12.60
2023-04-21T07:18:26.507Z,12.61
2023-04-21T07:20:55.502Z,12.67
2023-04-21T07:23:23.956Z,12.86
2023-04-21T07:25:54.006Z,12.94
2023-04-21T07:28:22.530Z,13.06
2023-04-21T07:30:51.153Z,13.20
2023-04-21T07:33:19.775Z,13.32
2023-04-21T07:35:48.268Z,13.58
2023-04-21T07:38:16.911Z,13.71
2023-04-21T07:40:45.465Z,13.73
2023-04-21T07:43:15.302Z,13.94
2023-04-21T07:45:45.462Z,13.96
2023-04-21T07:48:13.958Z,13.98
2023-04-21T07:50:42.839Z,14.09
2023-04-21T07:53:11.424Z,14.25
2023-04-21T07:55:40.482Z,14.40
2023-04-21T07:58:10.272Z,14.56
2023-04-21T08:00:40.139Z,14.72
2023-04-21T08:03:09.003Z,14.77
2023-04-21T08:05:40.878Z,14.85
2023-04-21T08:08:10.136Z,14.92
2023-04-21T08:10:39.097Z,14.96
2023-04-21T08:13:07.977Z,14.92
2023-04-21T08:15:36.511Z,15.01
2023-04-21T08:18:06.520Z,15.19
2023-04-21T08:20:35.281Z,15.33
2023-04-21T08:23:03.757Z,15.48
2023-04-21T08:25:32.242Z,15.65
2023-04-21T08:28:00.685Z,15.66
2023-04-21T08:30:29.953Z,15.75
2023-04-21T08:32:58.669Z,15.99
2023-04-21T08:35:28.576Z,16.05
2023-04-21T08:37:57.031Z,16.19
2023-04-21T08:40:33.765Z,16.30
2023-04-21T08:43:02.769Z,16.46
2023-04-21T08:45:31.505Z,16.56
2023-04-21T08:48:01.334Z,16.65
2023-04-21T08:50:32.721Z,16.74
2023-04-21T08:53:01.179Z,16.91
2023-04-21T08:55:31.481Z,17.10
2023-04-21T08:58:00.837Z,17.36
2023-04-21T09:00:29.387Z,17.50
2023-04-21T09:03:00.924Z,17.64
2023-04-21T09:05:33.078Z,17.75
2023-04-21T09:08:12.548Z,17.88
2023-04-21T09:10:48.335Z,18.13
2023-04-21T09:13:17.938Z,18.18
2023-04-21T09:15:48.749Z,18.32
2023-04-21T09:18:19.031Z,18.49
2023-04-21T09:20:51.497Z,18.56
2023-04-21T09:23:22.439Z,18.71
2023-04-21T09:25:55.677Z,18.88
2023-04-21T09:28:24.212Z,18.77
2023-04-21T09:30:57.331Z,18.88
2023-04-21T09:33:30.985Z,18.94
2023-04-21T09:36:07.352Z,19.03
2023-04-21T09:38:35.866Z,19.24
2023-04-21T09:41:04.552Z,19.35
2023-04-21T09:43:33.111Z,19.51
2023-04-21T09:46:04.496Z,19.70
2023-04-21T09:48:36.713Z,19.85
2023-04-21T09:53:41.517Z,20.04
2023-04-21T09:56:14.044Z,20.25
2023-04-21T09:58:48.217Z,20.33
2023-04-21T10:01:17.360Z,20.57
2023-04-21T10:03:47.417Z,20.69
2023-04-21T10:06:17.450Z,20.78
2023-04-21T10:08:46.449Z,20.85
2023-04-21T10:11:15.534Z,20.97
2023-04-21T10:13:45.016Z,21.08
2023-04-21T10:16:13.633Z,21.23
2023-04-21T10:18:45.860Z,21.30
2023-04-21T10:21:22.342Z,21.47
2023-04-21T10:23:52.775Z,21.46
2023-04-21T10:26:22.501Z,21.42
2023-04-21T10:28:55.506Z,21.32
2023-04-21T10:31:27.345Z,21.11
2023-04-21T10:34:21.899Z,21.15
2023-04-21T10:37:21.678Z,21.23
2023-04-21T10:39:55.129Z,21.19
2023-04-21T10:42:39.671Z,21.15
2023-04-21T10:45:11.012Z,21.05
2023-04-21T10:47:45.625Z,20.98
2023-04-21T10:50:20.576Z,20.42
2023-04-21T10:52:55.833Z,20.46
2023-04-21T10:55:27.261Z,20.53
2023-04-21T10:57:55.822Z,20.55
2023-04-21T11:00:26.204Z,20.71
2023-04-21T11:02:59.537Z,20.91
2023-04-21T11:05:38.895Z,20.89
2023-04-21T11:08:12.291Z,20.97
2023-04-21T11:10:52.291Z,20.99
2023-04-21T11:13:23.870Z,21.23
2023-04-21T11:16:03.301Z,21.18
2023-04-21T11:18:45.472Z,21.18
2023-04-21T11:21:21.696Z,21.05
2023-04-21T11:23:53.276Z,21.10
2023-04-21T11:26:32.473Z,21.45
2023-04-21T11:29:06.298Z,21.61
2023-04-21T11:31:36.149Z,21.83
2023-04-21T11:34:07.055Z,22.01
2023-04-21T11:36:35.686Z,21.96
2023-04-21T11:39:10.215Z,21.87
2023-04-21T11:41:41.416Z,21.81
2023-04-21T11:44:10.301Z,21.73
2023-04-21T11:46:39.034Z,21.80
2023-04-21T11:49:08.871Z,21.79
2023-04-21T11:51:38.929Z,22.01
2023-04-21T11:54:10.136Z,22.19
2023-04-21T11:56:39.340Z,22.34
2023-04-21T11:59:12.223Z,22.28
2023-04-21T12:01:47.185Z,22.07
2023-04-21T12:04:17.394Z,21.78
2023-04-21T12:06:46.784Z,22.11
2023-04-21T12:09:21.203Z,22.33
2023-04-21T12:11:51.339Z,22.48
2023-04-21T12:14:21.224Z,22.36
2023-04-21T12:16:51.593Z,22.03
2023-04-21T12:19:36.222Z,22.17
2023-04-21T12:22:09.524Z,22.29
2023-04-21T12:24:40.204Z,22.35
2023-04-21T12:27:09.159Z,22.24
2023-04-21T12:29:38.749Z,22.29
2023-04-21T12:32:07.945Z,22.32
2023-04-21T12:34:36.874Z,22.23
2023-04-21T12:37:06.355Z,22.51
2023-04-21T12:39:35.218Z,22.68
2023-04-21T12:42:05.239Z,22.69
2023-04-21T12:44:33.756Z,22.89
2023-04-21T12:47:02.666Z,23.13
2023-04-21T12:49:31.673Z,23.18
2023-04-21T12:52:00.760Z,23.08
2023-04-21T12:54:29.214Z,23.31
2023-04-21T12:56:58.251Z,23.13
2023-04-21T12:59:29.170Z,22.77
2023-04-21T13:01:57.872Z,23.01
2023-04-21T13:04:26.765Z,23.16
2023-04-21T13:06:55.553Z,23.08
2023-04-21T13:09:24.076Z,23.37
2023-04-21T13:11:53.099Z,23.42
2023-04-21T13:14:21.580Z,23.64
2023-04-21T13:16:51.813Z,23.57
2023-04-21T13:19:20.351Z,23.50
2023-04-21T13:21:50.515Z,23.56
2023-04-21T13:24:20.682Z,23.57
2023-04-21T13:26:49.268Z,23.53
2023-04-21T13:29:17.827Z,23.44
2023-04-21T13:31:46.434Z,23.56
2023-04-21T13:34:16.515Z,23.73
2023-04-21T13:36:45.416Z,23.97
2023-04-21T13:39:13.949Z,23.74
2023-04-21T13:41:42.623Z,23.91
2023-04-21T13:44:11.823Z,23.80
2023-04-21T13:46:40.550Z,23.89
2023-04-21T13:49:09.419Z,23.72
2023-04-21T13:51:39.430Z,23.50
2023-04-21T13:54:08.278Z,23.44
2023-04-21T13:56:37.733Z,23.77
2023-04-21T13:59:06.840Z,23.93
2023-04-21T14:01:35.549Z,23.89
2023-04-21T14:04:10.841Z,23.71
2023-04-21T14:06:41.037Z,23.60
2023-04-21T14:09:09.969Z,23.89
2023-04-21T14:11:38.431Z,23.68
2023-04-21T14:14:09.997Z,23.85
2023-04-21T14:16:40.345Z,23.81
2023-04-21T14:19:08.762Z,24.03
2023-04-21T14:21:37.428Z,23.90
2023-04-21T14:24:07.414Z,23.75
2023-04-21T14:26:36.387Z,23.71
2023-04-21T14:29:04.958Z,23.77
2023-04-21T14:31:33.771Z,23.78
2023-04-21T14:34:02.264Z,23.43
2023-04-21T14:36:31.342Z,23.54
2023-04-21T14:38:59.773Z,23.59
2023-04-21T14:41:29.769Z,23.70
2023-04-21T14:43:59.466Z,23.73
2023-04-21T14:46:29.422Z,23.91
2023-04-21T14:48:58.400Z,24.06
2023-04-21T14:51:26.976Z,23.97
2023-04-21T14:53:55.587Z,23.47
2023-04-21T14:56:24.063Z,22.80
2023-04-21T14:58:54.086Z,23.04
2023-04-21T15:01:24.501Z,22.76
2023-04-21T15:03:54.517Z,22.78
2023-04-21T15:06:23.196Z,22.78
2023-04-21T15:08:51.887Z,22.39
2023-04-21T15:11:20.428Z,22.42
2023-04-21T15:13:49.068Z,22.43
2023-04-21T15:16:19.086Z,22.37
2023-04-21T15:18:48.202Z,22.46
2023-04-21T15:21:16.694Z,22.54
2023-04-21T15:23:45.208Z,22.65
2023-04-21T15:26:13.961Z,22.68
2023-04-21T15:28:42.548Z,22.68
2023-04-21T15:31:11.160Z,22.55
2023-04-21T15:33:41.505Z,22.77
2023-04-21T15:36:10.092Z,22.99
2023-04-21T15:38:38.885Z,22.94
2023-04-21T15:41:07.538Z,22.93
2023-04-21T15:43:37.038Z,22.87
2023-04-21T15:46:13.391Z,22.94
2023-04-21T15:48:44.066Z,22.96
2023-04-21T15:51:12.849Z,22.82
2023-04-21T15:53:47.530Z,22.81
2023-04-21T15:56:16.264Z,22.32
2023-04-21T15:58:46.638Z,22.59
2023-04-21T16:01:15.548Z,22.61
2023-04-21T16:03:46.758Z,22.69
2023-04-21T16:06:15.520Z,22.70
2023-04-21T16:08:44.141Z,22.91
2023-04-21T16:11:12.872Z,22.96
2023-04-21T16:13:41.667Z,23.00
2023-04-21T16:16:10.362Z,23.02
2023-04-21T16:18:39.506Z,22.98
2023-04-21T16:21:11.025Z,22.92
2023-04-21T16:23:40.201Z,22.75
2023-04-21T16:26:09.631Z,22.75
2023-04-21T16:28:40.424Z,22.78
2023-04-21T16:31:09.384Z,22.76
2023-04-21T16:33:38.424Z,22.57
2023-04-21T16:36:08.838Z,22.54
2023-04-21T16:38:37.525Z,22.40
2023-04-21T16:41:07.135Z,22.38
2023-04-21T16:43:36.474Z,22.21
2023-04-21T16:46:05.024Z,22.32
2023-04-21T16:48:33.922Z,22.27
2023-04-21T16:51:03.086Z,22.21
2023-04-21T16:53:33.462Z,22.19
2023-04-21T16:56:02.457Z,22.30
2023-04-21T16:58:31.570Z,22.35
2023-04-21T17:01:00.221Z,22.42
2023-04-21T17:03:29.900Z,22.38
2023-04-21T17:05:58.953Z,22.44
2023-04-21T17:08:27.545Z,22.34
2023-04-21T17:10:59.452Z,22.26
2023-04-21T17:13:28.029Z,22.14
2023-04-21T17:15:57.030Z,22.03
2023-04-21T17:18:25.696Z,21.99
2023-04-21T17:20:54.589Z,21.93
2023-04-21T17:23:23.420Z,21.78
2023-04-21T17:25:55.141Z,21.73
2023-04-21T17:28:25.170Z,21.68
2023-04-21T17:31:07.057Z,21.63
2023-04-21T17:33:43.043Z,21.52
2023-04-21T17:36:13.320Z,21.43
2023-04-21T17:38:43.275Z,21.34
2023-04-21T17:41:11.934Z,21.24
2023-04-21T17:43:42.106Z,21.15
2023-04-21T17:46:11.723Z,21.01
2023-04-21T17:48:40.674Z,20.91
2023-04-21T17:51:09.605Z,20.65
2023-04-21T17:53:38.469Z,20.48
2023-04-21T17:56:07.207Z,20.21
2023-04-21T17:58:36.306Z,19.88
2023-04-21T18:01:07.492Z,19.86
2023-04-21T18:03:37.563Z,19.76
2023-04-21T18:06:06.726Z,19.64
2023-04-21T18:08:35.425Z,19.35
2023-04-21T18:11:04.015Z,19.17
2023-04-21T18:13:32.597Z,19.00
2023-04-21T18:16:02.680Z,18.87
2023-04-21T18:18:32.634Z,18.80
2023-04-21T18:21:01.446Z,18.77
2023-04-21T18:23:30.232Z,18.68
2023-04-21T18:25:59.888Z,18.61
2023-04-21T18:28:29.680Z,18.48
2023-04-21T18:30:58.665Z,18.55
2023-04-21T18:33:27.339Z,18.52
2023-04-21T18:35:57.381Z,18.50
2023-04-21T18:38:25.942Z,18.45
2023-04-21T18:40:54.642Z,18.40
2023-04-21T18:43:24.149Z,18.31
2023-04-21T18:45:53.157Z,18.26
2023-04-21T18:48:22.046Z,18.20
2023-04-21T18:50:50.951Z,18.18
2023-04-21T18:53:21.074Z,18.09
2023-04-21T18:55:49.755Z,18.01
2023-04-21T18:58:18.357Z,17.93
2023-04-21T19:00:46.994Z,17.88
2023-04-21T19:03:15.737Z,17.85
2023-04-21T19:05:44.333Z,17.82
2023-04-21T19:08:12.903Z,17.75
2023-04-21T19:10:42.977Z,17.68
2023-04-21T19:13:11.834Z,17.65
2023-04-21T19:15:40.631Z,17.62
2023-04-21T19:18:09.269Z,17.58
2023-04-21T19:20:38.653Z,17.58
2023-04-21T19:23:07.264Z,17.56
2023-04-21T19:25:37.227Z,17.43
2023-04-21T19:28:08.061Z,17.45
2023-04-21T19:30:39.192Z,17.36
2023-04-21T19:33:07.778Z,17.33
2023-04-21T19:35:36.508Z,17.25
2023-04-21T19:38:06.081Z,17.20
2023-04-21T19:40:34.592Z,17.16
2023-04-21T19:43:04.830Z,17.10
2023-04-21T19:45:34.836Z,17.04
2023-04-21T19:48:03.300Z,16.99
2023-04-21T19:50:31.967Z,16.91
2023-04-21T19:53:00.486Z,16.86
2023-04-21T19:55:29.299Z,16.81
2023-04-21T19:57:58.451Z,16.69
2023-04-21T20:00:27.230Z,16.76
2023-04-21T20:02:57.326Z,16.64
2023-04-21T20:05:25.903Z,16.64
2023-04-21T20:07:54.465Z,16.59
2023-04-21T20:10:24.613Z,16.56
2023-04-21T20:12:53.082Z,16.47
2023-04-21T20:15:22.897Z,16.43
2023-04-21T20:17:51.457Z,16.25
2023-04-21T20:20:21.840Z,16.26
2023-04-21T20:22:50.600Z,16.19
2023-04-21T20:25:19.296Z,16.12
2023-04-21T20:27:48.121Z,16.03
2023-04-21T20:30:16.616Z,15.96
2023-04-21T20:32:45.202Z,15.86
2023-04-21T20:35:16.841Z,15.81
2023-04-21T20:37:47.520Z,15.75
2023-04-21T20:40:16.052Z,15.66
2023-04-21T20:42:45.250Z,15.59
2023-04-21T20:45:14.178Z,15.52
2023-04-21T20:47:43.101Z,15.46
2023-04-21T20:50:12.047Z,15.39
2023-04-21T20:52:41.125Z,15.35
2023-04-21T20:55:12.523Z,15.26
2023-04-21T20:57:41.125Z,15.16
2023-04-21T21:00:12.487Z,15.15
2023-04-21T21:02:41.502Z,15.11
2023-04-21T21:05:10.477Z,15.05
2023-04-21T21:07:39.393Z,14.98
2023-04-21T21:10:11.155Z,14.94
2023-04-21T21:12:41.156Z,14.86
2023-04-21T21:15:10.456Z,14.82
2023-04-21T21:17:39.152Z,14.73
2023-04-21T21:20:09.062Z,14.68
2023-04-21T21:22:37.469Z,14.60
2023-04-21T21:25:06.704Z,14.51
2023-04-21T21:27:35.231Z,14.42
2023-04-21T21:30:05.947Z,14.35
2023-04-21T21:32:34.776Z,14.27
2023-04-21T21:35:03.338Z,14.22
2023-04-21T21:37:31.945Z,14.16
2023-04-21T21:40:01.094Z,14.08
2023-04-21T21:42:30.024Z,14.04
2023-04-21T21:44:58.548Z,14.00
2023-04-21T21:47:28.952Z,13.96
2023-04-21T21:49:59.140Z,13.92
2023-04-21T21:52:28.913Z,13.94
2023-04-21T21:54:58.649Z,14.05
2023-04-21T21:57:27.631Z,14.03
2023-04-21T21:59:56.429Z,13.97
2023-04-21T22:02:25.215Z,13.90
2023-04-21T22:04:55.823Z,13.85
2023-04-21T22:07:25.311Z,13.78
2023-04-21T22:09:53.943Z,13.67
2023-04-21T22:12:22.401Z,13.66
2023-04-21T22:14:50.876Z,13.65
2023-04-21T22:17:19.467Z,13.58
2023-04-21T22:19:48.005Z,13.51
2023-04-21T22:22:18.065Z,13.48
2023-04-21T22:24:46.709Z,13.41
2023-04-21T22:27:15.300Z,13.36
2023-04-21T22:29:43.784Z,13.29
2023-04-21T22:32:12.410Z,13.24
2023-04-21T22:34:41.061Z,13.22
2023-04-21T22:37:09.751Z,13.18
2023-04-21T22:39:40.412Z,13.12
2023-04-21T22:42:09.164Z,13.06
2023-04-21T22:44:37.836Z,13.00
2023-04-21T22:47:06.753Z,12.95
2023-04-21T22:49:36.974Z,12.91
2023-04-21T22:52:05.837Z,12.87
2023-04-21T22:54:34.296Z,12.80
2023-04-21T22:57:04.249Z,12.74
2023-04-21T22:59:32.696Z,12.67
2023-04-21T23:02:01.889Z,12.63
2023-04-21T23:04:30.369Z,12.58
2023-04-21T23:07:05.909Z,12.52
2023-04-21T23:09:34.321Z,12.44
2023-04-21T23:12:06.319Z,12.40
2023-04-21T23:14:34.783Z,12.33
2023-04-21T23:17:03.400Z,12.29
2023-04-21T23:19:32.607Z,12.24
2023-04-21T23:22:01.193Z,12.18
2023-04-21T23:24:29.875Z,12.13
2023-04-21T23:26:58.826Z,12.05
2023-04-21T23:29:28.653Z,12.03
2023-04-21T23:31:57.312Z,12.00
2023-04-21T23:34:26.597Z,11.95
2023-04-21T23:36:55.169Z,11.91
2023-04-21T23:39:24.068Z,11.85
2023-04-21T23:41:52.647Z,11.81
2023-04-21T23:44:21.421Z,11.75
2023-04-21T23:46:51.854Z,11.70
2023-04-21T23:49:20.310Z,11.67
2023-04-21T23:51:48.802Z,11.62
2023-04-21T23:54:17.874Z,11.58
2023-04-21T23:56:46.602Z,11.54
2023-04-21T23:59:14.941Z,11.51
